sensor_id;sensor_type;location;lat;lon;timestamp;P1;durP1;ratioP1;P2;durP2;ratioP2
33954;SDS011;20233;50.804;7.126;2023-04-28T00:01:05;7.50;;;3.13;;
33954;SDS011;20233;50.804;7.126;2023-04-28T00:03:30;5.93;;;3.28;;
33954;SDS011;20233;50.804;7.126;2023-04-28T00:05:56;10.52;;;3.28;;
33954;SDS011;20233;50.804;7.126;2023-04-28T00:08:22;9.10;;;2.97;;
33954;SDS011;20233;50.804;7.126;2023-04-28T00:10:50;7.72;;;3.40;;
33954;SDS011;20233;50.804;7.126;2023-04-28T00:13:16;8.75;;;3.55;;
33954;SDS011;20233;50.804;7.126;2023-04-28T00:15:42;9.10;;;2.95;;
33954;SDS011;20233;50.804;7.126;2023-04-28T00:18:07;7.07;;;3.38;;
33954;SDS011;20233;50.804;7.126;2023-04-28T00:20:33;7.40;;;3.33;;
33954;SDS011;20233;50.804;7.126;2023-04-28T00:22:58;8.98;;;3.30;;
33954;SDS011;20233;50.804;7.126;2023-04-28T00:25:24;8.98;;;3.25;;
33954;SDS011;20233;50.804;7.126;2023-04-28T00:27:49;7.78;;;3.50;;
33954;SDS011;20233;50.804;7.126;2023-04-28T00:30:15;5.72;;;2.72;;
33954;SDS011;20233;50.804;7.126;2023-04-28T00:32:41;7.72;;;3.00;;
33954;SDS011;20233;50.804;7.126;2023-04-28T00:35:06;7.18;;;3.28;;
33954;SDS011;20233;50.804;7.126;2023-04-28T00:37:36;8.68;;;3.17;;
33954;SDS011;20233;50.804;7.126;2023-04-28T00:40:03;8.02;;;2.90;;
33954;SDS011;20233;50.804;7.126;2023-04-28T00:42:29;5.35;;;2.80;;
33954;SDS011;20233;50.804;7.126;2023-04-28T00:44:55;6.63;;;3.10;;
33954;SDS011;20233;50.804;7.126;2023-04-28T00:47:21;9.13;;;4.13;;
33954;SDS011;20233;50.804;7.126;2023-04-28T00:49:46;7.13;;;2.97;;
33954;SDS011;20233;50.804;7.126;2023-04-28T00:52:13;9.23;;;3.05;;
33954;SDS011;20233;50.804;7.126;2023-04-28T00:54:39;5.43;;;3.08;;
33954;SDS011;20233;50.804;7.126;2023-04-28T00:57:06;8.65;;;3.33;;
33954;SDS011;20233;50.804;7.126;2023-04-28T00:59:35;4.72;;;3.28;;
33954;SDS011;20233;50.804;7.126;2023-04-28T01:02:01;5.75;;;2.88;;
33954;SDS011;20233;50.804;7.126;2023-04-28T01:04:28;5.85;;;2.60;;
33954;SDS011;20233;50.804;7.126;2023-04-28T01:06:54;7.28;;;3.00;;
33954;SDS011;20233;50.804;7.126;2023-04-28T01:09:20;10.13;;;3.42;;
33954;SDS011;20233;50.804;7.126;2023-04-28T01:11:46;6.78;;;3.20;;
33954;SDS011;20233;50.804;7.126;2023-04-28T01:14:12;6.75;;;3.28;;
33954;SDS011;20233;50.804;7.126;2023-04-28T01:16:37;7.85;;;3.60;;
33954;SDS011;20233;50.804;7.126;2023-04-28T01:19:04;6.28;;;3.00;;
33954;SDS011;20233;50.804;7.126;2023-04-28T01:21:31;7.38;;;3.40;;
33954;SDS011;20233;50.804;7.126;2023-04-28T01:23:58;8.05;;;2.70;;
33954;SDS011;20233;50.804;7.126;2023-04-28T01:26:26;8.73;;;2.83;;
33954;SDS011;20233;50.804;7.126;2023-04-28T01:28:52;8.07;;;2.60;;
33954;SDS011;20233;50.804;7.126;2023-04-28T01:31:18;7.45;;;3.08;;
33954;SDS011;20233;50.804;7.126;2023-04-28T01:33:44;6.80;;;3.30;;
33954;SDS011;20233;50.804;7.126;2023-04-28T01:36:09;6.65;;;2.90;;
33954;SDS011;20233;50.804;7.126;2023-04-28T01:38:35;7.68;;;3.40;;
33954;SDS011;20233;50.804;7.126;2023-04-28T01:41:00;10.25;;;3.30;;
33954;SDS011;20233;50.804;7.126;2023-04-28T01:43:29;9.32;;;3.53;;
33954;SDS011;20233;50.804;7.126;2023-04-28T01:45:55;6.78;;;3.22;;
33954;SDS011;20233;50.804;7.126;2023-04-28T01:48:20;7.38;;;2.92;;
33954;SDS011;20233;50.804;7.126;2023-04-28T01:50:46;9.02;;;3.53;;
33954;SDS011;20233;50.804;7.126;2023-04-28T01:53:12;5.80;;;3.45;;
33954;SDS011;20233;50.804;7.126;2023-04-28T01:55:39;7.07;;;2.70;;
33954;SDS011;20233;50.804;7.126;2023-04-28T01:58:04;5.47;;;3.25;;
33954;SDS011;20233;50.804;7.126;2023-04-28T02:00:31;7.18;;;3.15;;
33954;SDS011;20233;50.804;7.126;2023-04-28T02:02:56;6.35;;;3.03;;
33954;SDS011;20233;50.804;7.126;2023-04-28T02:05:22;8.15;;;3.28;;
33954;SDS011;20233;50.804;7.126;2023-04-28T02:07:47;3.97;;;2.75;;
33954;SDS011;20233;50.804;7.126;2023-04-28T02:10:13;7.20;;;3.08;;
33954;SDS011;20233;50.804;7.126;2023-04-28T02:12:38;5.80;;;3.35;;
33954;SDS011;20233;50.804;7.126;2023-04-28T02:15:06;7.25;;;3.70;;
33954;SDS011;20233;50.804;7.126;2023-04-28T02:17:32;7.03;;;3.95;;
33954;SDS011;20233;50.804;7.126;2023-04-28T02:19:58;7.00;;;3.05;;
33954;SDS011;20233;50.804;7.126;2023-04-28T02:22:24;6.38;;;3.60;;
33954;SDS011;20233;50.804;7.126;2023-04-28T02:24:49;8.00;;;3.33;;
33954;SDS011;20233;50.804;7.126;2023-04-28T02:27:15;4.95;;;3.15;;
33954;SDS011;20233;50.804;7.126;2023-04-28T02:29:42;9.18;;;3.45;;
33954;SDS011;20233;50.804;7.126;2023-04-28T02:32:07;8.88;;;3.80;;
33954;SDS011;20233;50.804;7.126;2023-04-28T02:34:33;7.05;;;4.00;;
33954;SDS011;20233;50.804;7.126;2023-04-28T02:36:58;8.30;;;3.67;;
33954;SDS011;20233;50.804;7.126;2023-04-28T02:39:24;7.80;;;3.70;;
33954;SDS011;20233;50.804;7.126;2023-04-28T02:41:51;6.45;;;3.53;;
33954;SDS011;20233;50.804;7.126;2023-04-28T02:44:18;8.00;;;4.60;;
33954;SDS011;20233;50.804;7.126;2023-04-28T02:46:44;7.38;;;4.00;;
33954;SDS011;20233;50.804;7.126;2023-04-28T02:49:10;7.10;;;4.03;;
33954;SDS011;20233;50.804;7.126;2023-04-28T02:51:36;7.28;;;3.95;;
33954;SDS011;20233;50.804;7.126;2023-04-28T02:54:01;8.10;;;4.28;;
33954;SDS011;20233;50.804;7.126;2023-04-28T02:56:27;6.68;;;3.92;;
33954;SDS011;20233;50.804;7.126;2023-04-28T02:58:53;5.97;;;3.55;;
33954;SDS011;20233;50.804;7.126;2023-04-28T03:01:19;6.05;;;4.10;;
33954;SDS011;20233;50.804;7.126;2023-04-28T03:03:45;6.40;;;3.97;;
33954;SDS011;20233;50.804;7.126;2023-04-28T03:06:11;6.45;;;3.75;;
33954;SDS011;20233;50.804;7.126;2023-04-28T03:08:36;8.82;;;3.83;;
33954;SDS011;20233;50.804;7.126;2023-04-28T03:11:02;10.30;;;4.38;;
33954;SDS011;20233;50.804;7.126;2023-04-28T03:13:27;6.57;;;3.80;;
33954;SDS011;20233;50.804;7.126;2023-04-28T03:15:53;12.32;;;4.57;;
33954;SDS011;20233;50.804;7.126;2023-04-28T03:18:21;7.03;;;4.05;;
33954;SDS011;20233;50.804;7.126;2023-04-28T03:20:47;12.13;;;4.20;;
33954;SDS011;20233;50.804;7.126;2023-04-28T03:23:13;7.05;;;3.97;;
33954;SDS011;20233;50.804;7.126;2023-04-28T03:25:39;7.90;;;3.92;;
33954;SDS011;20233;50.804;7.126;2023-04-28T03:28:05;5.65;;;3.65;;
33954;SDS011;20233;50.804;7.126;2023-04-28T03:30:31;7.10;;;3.78;;
33954;SDS011;20233;50.804;7.126;2023-04-28T03:32:56;9.60;;;4.50;;
33954;SDS011;20233;50.804;7.126;2023-04-28T03:35:22;10.27;;;4.40;;
33954;SDS011;20233;50.804;7.126;2023-04-28T03:37:48;8.45;;;4.20;;
33954;SDS011;20233;50.804;7.126;2023-04-28T03:40:13;9.55;;;4.90;;
33954;SDS011;20233;50.804;7.126;2023-04-28T03:42:39;7.45;;;4.13;;
33954;SDS011;20233;50.804;7.126;2023-04-28T03:45:05;9.85;;;4.75;;
33954;SDS011;20233;50.804;7.126;2023-04-28T03:47:31;6.18;;;4.45;;
33954;SDS011;20233;50.804;7.126;2023-04-28T03:49:57;7.53;;;4.53;;
33954;SDS011;20233;50.804;7.126;2023-04-28T03:52:24;7.13;;;4.88;;
33954;SDS011;20233;50.804;7.126;2023-04-28T03:54:50;8.75;;;4.70;;
33954;SDS011;20233;50.804;7.126;2023-04-28T03:57:15;8.15;;;4.70;;
33954;SDS011;20233;50.804;7.126;2023-04-28T03:59:41;8.27;;;5.38;;
33954;SDS011;20233;50.804;7.126;2023-04-28T04:02:06;7.43;;;4.57;;
33954;SDS011;20233;50.804;7.126;2023-04-28T04:04:32;9.60;;;4.60;;
33954;SDS011;20233;50.804;7.126;2023-04-28T04:06:58;7.32;;;4.35;;
33954;SDS011;20233;50.804;7.126;2023-04-28T04:09:23;9.73;;;6.10;;
33954;SDS011;20233;50.804;7.126;2023-04-28T04:11:50;7.78;;;5.20;;
33954;SDS011;20233;50.804;7.126;2023-04-28T04:14:16;9.73;;;5.03;;
33954;SDS011;20233;50.804;7.126;2023-04-28T04:16:42;9.38;;;4.85;;
33954;SDS011;20233;50.804;7.126;2023-04-28T04:19:07;8.85;;;5.50;;
33954;SDS011;20233;50.804;7.126;2023-04-28T04:21:33;11.77;;;4.88;;
33954;SDS011;20233;50.804;7.126;2023-04-28T04:23:58;11.32;;;5.60;;
33954;SDS011;20233;50.804;7.126;2023-04-28T04:26:24;7.93;;;4.90;;
33954;SDS011;20233;50.804;7.126;2023-04-28T04:28:50;7.15;;;5.25;;
33954;SDS011;20233;50.804;7.126;2023-04-28T04:31:15;8.63;;;4.75;;
33954;SDS011;20233;50.804;7.126;2023-04-28T04:33:43;7.15;;;4.68;;
33954;SDS011;20233;50.804;7.126;2023-04-28T04:36:09;8.85;;;5.50;;
33954;SDS011;20233;50.804;7.126;2023-04-28T04:38:34;9.75;;;5.15;;
33954;SDS011;20233;50.804;7.126;2023-04-28T04:41:00;6.53;;;4.35;;
33954;SDS011;20233;50.804;7.126;2023-04-28T04:43:25;10.60;;;4.93;;
33954;SDS011;20233;50.804;7.126;2023-04-28T04:45:51;6.47;;;4.47;;
33954;SDS011;20233;50.804;7.126;2023-04-28T04:48:16;8.35;;;5.00;;
33954;SDS011;20233;50.804;7.126;2023-04-28T04:50:42;6.38;;;4.88;;
33954;SDS011;20233;50.804;7.126;2023-04-28T04:53:08;10.40;;;5.10;;
33954;SDS011;20233;50.804;7.126;2023-04-28T04:55:33;10.05;;;5.35;;
33954;SDS011;20233;50.804;7.126;2023-04-28T04:57:59;7.90;;;5.03;;
33954;SDS011;20233;50.804;7.126;2023-04-28T05:00:25;12.70;;;5.47;;
33954;SDS011;20233;50.804;7.126;2023-04-28T05:02:51;8.30;;;5.70;;
33954;SDS011;20233;50.804;7.126;2023-04-28T05:05:16;9.55;;;5.07;;
33954;SDS011;20233;50.804;7.126;2023-04-28T05:07:42;9.07;;;5.40;;
33954;SDS011;20233;50.804;7.126;2023-04-28T05:10:07;7.38;;;5.45;;
33954;SDS011;20233;50.804;7.126;2023-04-28T05:12:35;9.23;;;5.40;;
33954;SDS011;20233;50.804;7.126;2023-04-28T05:15:01;9.35;;;5.70;;
33954;SDS011;20233;50.804;7.126;2023-04-28T05:17:28;8.90;;;5.25;;
33954;SDS011;20233;50.804;7.126;2023-04-28T05:19:53;8.13;;;5.53;;
33954;SDS011;20233;50.804;7.126;2023-04-28T05:22:19;10.20;;;6.03;;
33954;SDS011;20233;50.804;7.126;2023-04-28T05:24:44;8.43;;;5.38;;
33954;SDS011;20233;50.804;7.126;2023-04-28T05:27:10;7.70;;;6.10;;
33954;SDS011;20233;50.804;7.126;2023-04-28T05:29:35;9.73;;;6.75;;
33954;SDS011;20233;50.804;7.126;2023-04-28T05:32:01;8.48;;;5.85;;
33954;SDS011;20233;50.804;7.126;2023-04-28T05:34:26;9.63;;;5.97;;
33954;SDS011;20233;50.804;7.126;2023-04-28T05:36:52;10.52;;;6.35;;
33954;SDS011;20233;50.804;7.126;2023-04-28T05:39:18;10.82;;;6.97;;
33954;SDS011;20233;50.804;7.126;2023-04-28T05:41:43;7.70;;;5.93;;
33954;SDS011;20233;50.804;7.126;2023-04-28T05:44:09;14.38;;;6.20;;
33954;SDS011;20233;50.804;7.126;2023-04-28T05:46:35;11.65;;;6.93;;
33954;SDS011;20233;50.804;7.126;2023-04-28T05:49:01;10.68;;;6.50;;
33954;SDS011;20233;50.804;7.126;2023-04-28T05:51:27;13.27;;;8.02;;
33954;SDS011;20233;50.804;7.126;2023-04-28T05:53:52;10.52;;;6.85;;
33954;SDS011;20233;50.804;7.126;2023-04-28T05:56:18;10.45;;;6.85;;
33954;SDS011;20233;50.804;7.126;2023-04-28T05:58:44;10.55;;;7.20;;
33954;SDS011;20233;50.804;7.126;2023-04-28T06:01:11;10.35;;;6.82;;
33954;SDS011;20233;50.804;7.126;2023-04-28T06:03:37;10.60;;;7.53;;
33954;SDS011;20233;50.804;7.126;2023-04-28T06:06:04;13.73;;;7.32;;
33954;SDS011;20233;50.804;7.126;2023-04-28T06:08:31;10.70;;;6.95;;
33954;SDS011;20233;50.804;7.126;2023-04-28T06:10:57;15.43;;;7.43;;
33954;SDS011;20233;50.804;7.126;2023-04-28T06:13:23;15.07;;;6.75;;
33954;SDS011;20233;50.804;7.126;2023-04-28T06:15:53;18.50;;;7.25;;
33954;SDS011;20233;50.804;7.126;2023-04-28T06:18:21;17.38;;;7.53;;
33954;SDS011;20233;50.804;7.126;2023-04-28T06:20:48;14.07;;;7.38;;
33954;SDS011;20233;50.804;7.126;2023-04-28T06:23:15;14.75;;;7.40;;
33954;SDS011;20233;50.804;7.126;2023-04-28T06:25:42;9.82;;;6.60;;
33954;SDS011;20233;50.804;7.126;2023-04-28T06:28:08;13.20;;;7.10;;
33954;SDS011;20233;50.804;7.126;2023-04-28T06:30:36;14.60;;;7.00;;
33954;SDS011;20233;50.804;7.126;2023-04-28T06:33:02;12.38;;;7.43;;
33954;SDS011;20233;50.804;7.126;2023-04-28T06:35:29;10.30;;;7.18;;
33954;SDS011;20233;50.804;7.126;2023-04-28T06:37:56;11.18;;;7.43;;
33954;SDS011;20233;50.804;7.126;2023-04-28T06:40:26;10.37;;;7.13;;
33954;SDS011;20233;50.804;7.126;2023-04-28T06:42:53;10.10;;;6.70;;
33954;SDS011;20233;50.804;7.126;2023-04-28T06:45:20;11.15;;;6.63;;
33954;SDS011;20233;50.804;7.126;2023-04-28T06:47:49;12.88;;;7.65;;
33954;SDS011;20233;50.804;7.126;2023-04-28T06:50:16;10.27;;;7.45;;
33954;SDS011;20233;50.804;7.126;2023-04-28T06:52:43;14.48;;;7.53;;
33954;SDS011;20233;50.804;7.126;2023-04-28T06:55:12;10.90;;;7.35;;
33954;SDS011;20233;50.804;7.126;2023-04-28T06:57:42;14.98;;;8.13;;
33954;SDS011;20233;50.804;7.126;2023-04-28T07:00:08;11.90;;;6.93;;
33954;SDS011;20233;50.804;7.126;2023-04-28T07:02:35;9.48;;;7.00;;
33954;SDS011;20233;50.804;7.126;2023-04-28T07:05:02;10.07;;;6.75;;
33954;SDS011;20233;50.804;7.126;2023-04-28T07:07:28;14.50;;;7.18;;
33954;SDS011;20233;50.804;7.126;2023-04-28T07:09:55;13.18;;;7.75;;
33954;SDS011;20233;50.804;7.126;2023-04-28T07:12:23;10.75;;;7.38;;
33954;SDS011;20233;50.804;7.126;2023-04-28T07:14:50;10.30;;;7.20;;
33954;SDS011;20233;50.804;7.126;2023-04-28T07:17:17;11.50;;;6.70;;
33954;SDS011;20233;50.804;7.126;2023-04-28T07:19:43;9.75;;;6.43;;
33954;SDS011;20233;50.804;7.126;2023-04-28T07:22:10;13.75;;;7.18;;
33954;SDS011;20233;50.804;7.126;2023-04-28T07:24:37;11.15;;;7.28;;
33954;SDS011;20233;50.804;7.126;2023-04-28T07:27:04;10.40;;;7.28;;
33954;SDS011;20233;50.804;7.126;2023-04-28T07:29:30;12.60;;;7.40;;
33954;SDS011;20233;50.804;7.126;2023-04-28T07:31:59;10.90;;;7.18;;
33954;SDS011;20233;50.804;7.126;2023-04-28T07:34:27;11.25;;;6.80;;
33954;SDS011;20233;50.804;7.126;2023-04-28T07:36:54;13.13;;;6.63;;
33954;SDS011;20233;50.804;7.126;2023-04-28T07:39:21;10.75;;;6.85;;
33954;SDS011;20233;50.804;7.126;2023-04-28T07:41:48;9.13;;;7.15;;
33954;SDS011;20233;50.804;7.126;2023-04-28T07:44:14;8.50;;;6.35;;
33954;SDS011;20233;50.804;7.126;2023-04-28T07:46:41;9.75;;;6.95;;
33954;SDS011;20233;50.804;7.126;2023-04-28T07:49:07;10.95;;;6.97;;
33954;SDS011;20233;50.804;7.126;2023-04-28T07:51:34;11.93;;;7.28;;
33954;SDS011;20233;50.804;7.126;2023-04-28T07:54:00;13.07;;;6.28;;
33954;SDS011;20233;50.804;7.126;2023-04-28T07:56:26;9.68;;;6.20;;
33954;SDS011;20233;50.804;7.126;2023-04-28T07:58:53;10.23;;;5.80;;
33954;SDS011;20233;50.804;7.126;2023-04-28T08:01:20;12.80;;;5.88;;
33954;SDS011;20233;50.804;7.126;2023-04-28T08:03:48;7.38;;;4.85;;
33954;SDS011;20233;50.804;7.126;2023-04-28T08:06:15;9.55;;;6.15;;
33954;SDS011;20233;50.804;7.126;2023-04-28T08:08:41;6.93;;;4.75;;
33954;SDS011;20233;50.804;7.126;2023-04-28T08:11:08;12.43;;;6.30;;
33954;SDS011;20233;50.804;7.126;2023-04-28T08:13:35;8.93;;;5.25;;
33954;SDS011;20233;50.804;7.126;2023-04-28T08:16:02;8.40;;;5.57;;
33954;SDS011;20233;50.804;7.126;2023-04-28T08:18:29;10.48;;;6.20;;
33954;SDS011;20233;50.804;7.126;2023-04-28T08:20:56;7.95;;;5.93;;
33954;SDS011;20233;50.804;7.126;2023-04-28T08:23:23;11.55;;;6.28;;
33954;SDS011;20233;50.804;7.126;2023-04-28T08:25:52;10.15;;;5.45;;
33954;SDS011;20233;50.804;7.126;2023-04-28T08:28:20;9.10;;;6.15;;
33954;SDS011;20233;50.804;7.126;2023-04-28T08:30:47;10.57;;;6.63;;
33954;SDS011;20233;50.804;7.126;2023-04-28T08:33:15;8.65;;;5.80;;
33954;SDS011;20233;50.804;7.126;2023-04-28T08:35:42;11.73;;;6.00;;
33954;SDS011;20233;50.804;7.126;2023-04-28T08:38:09;10.93;;;5.85;;
33954;SDS011;20233;50.804;7.126;2023-04-28T08:40:38;10.23;;;5.93;;
33954;SDS011;20233;50.804;7.126;2023-04-28T08:43:07;11.20;;;5.80;;
33954;SDS011;20233;50.804;7.126;2023-04-28T08:45:39;8.07;;;5.28;;
33954;SDS011;20233;50.804;7.126;2023-04-28T08:48:18;7.57;;;4.53;;
33954;SDS011;20233;50.804;7.126;2023-04-28T08:50:48;9.70;;;5.97;;
33954;SDS011;20233;50.804;7.126;2023-04-28T08:53:27;7.80;;;5.13;;
33954;SDS011;20233;50.804;7.126;2023-04-28T08:55:57;9.40;;;4.55;;
33954;SDS011;20233;50.804;7.126;2023-04-28T08:58:44;6.78;;;4.80;;
33954;SDS011;20233;50.804;7.126;2023-04-28T09:01:11;8.07;;;4.88;;
33954;SDS011;20233;50.804;7.126;2023-04-28T09:03:40;9.35;;;5.88;;
33954;SDS011;20233;50.804;7.126;2023-04-28T09:06:07;9.63;;;5.50;;
33954;SDS011;20233;50.804;7.126;2023-04-28T09:08:33;6.35;;;5.03;;
33954;SDS011;20233;50.804;7.126;2023-04-28T09:11:10;6.15;;;5.05;;
33954;SDS011;20233;50.804;7.126;2023-04-28T09:13:38;8.60;;;5.82;;
33954;SDS011;20233;50.804;7.126;2023-04-28T09:16:06;7.85;;;5.28;;
33954;SDS011;20233;50.804;7.126;2023-04-28T09:18:32;8.93;;;6.10;;
33954;SDS011;20233;50.804;7.126;2023-04-28T09:21:03;11.80;;;6.43;;
33954;SDS011;20233;50.804;7.126;2023-04-28T09:23:33;6.32;;;5.53;;
33954;SDS011;20233;50.804;7.126;2023-04-28T09:26:12;11.38;;;5.95;;
33954;SDS011;20233;50.804;7.126;2023-04-28T09:28:39;7.78;;;5.40;;
33954;SDS011;20233;50.804;7.126;2023-04-28T09:31:06;8.98;;;5.55;;
33954;SDS011;20233;50.804;7.126;2023-04-28T09:33:57;6.95;;;6.25;;
33954;SDS011;20233;50.804;7.126;2023-04-28T09:36:28;7.10;;;5.75;;
33954;SDS011;20233;50.804;7.126;2023-04-28T09:38:58;7.22;;;5.82;;
33954;SDS011;20233;50.804;7.126;2023-04-28T09:41:41;9.23;;;6.80;;
33954;SDS011;20233;50.804;7.126;2023-04-28T09:44:11;9.07;;;6.28;;
33954;SDS011;20233;50.804;7.126;2023-04-28T09:46:39;9.85;;;6.95;;
33954;SDS011;20233;50.804;7.126;2023-04-28T09:49:09;10.52;;;5.85;;
33954;SDS011;20233;50.804;7.126;2023-04-28T09:51:41;9.73;;;6.05;;
33954;SDS011;20233;50.804;7.126;2023-04-28T09:54:09;7.03;;;5.28;;
33954;SDS011;20233;50.804;7.126;2023-04-28T09:56:37;6.22;;;4.55;;
33954;SDS011;20233;50.804;7.126;2023-04-28T09:59:08;9.60;;;5.35;;
33954;SDS011;20233;50.804;7.126;2023-04-28T10:01:39;9.05;;;5.13;;
33954;SDS011;20233;50.804;7.126;2023-04-28T10:04:08;7.32;;;5.25;;
33954;SDS011;20233;50.804;7.126;2023-04-28T10:06:36;7.15;;;4.90;;
33954;SDS011;20233;50.804;7.126;2023-04-28T10:09:04;8.32;;;5.20;;
33954;SDS011;20233;50.804;7.126;2023-04-28T10:11:32;7.05;;;5.00;;
33954;SDS011;20233;50.804;7.126;2023-04-28T10:13:59;6.93;;;4.80;;
33954;SDS011;20233;50.804;7.126;2023-04-28T10:16:29;7.57;;;5.28;;
33954;SDS011;20233;50.804;7.126;2023-04-28T10:18:57;7.85;;;5.18;;
33954;SDS011;20233;50.804;7.126;2023-04-28T10:21:27;6.47;;;5.23;;
33954;SDS011;20233;50.804;7.126;2023-04-28T10:29:14;6.60;;;5.15;;
33954;SDS011;20233;50.804;7.126;2023-04-28T10:32:13;8.55;;;5.60;;
33954;SDS011;20233;50.804;7.126;2023-04-28T10:35:41;8.45;;;5.50;;
33954;SDS011;20233;50.804;7.126;2023-04-28T10:38:03;7.05;;;5.57;;
33954;SDS011;20233;50.804;7.126;2023-04-28T10:40:34;8.15;;;4.97;;
33954;SDS011;20233;50.804;7.126;2023-04-28T10:43:08;6.05;;;5.10;;
33954;SDS011;20233;50.804;7.126;2023-04-28T10:48:19;10.40;;;5.90;;
33954;SDS011;20233;50.804;7.126;2023-04-28T10:56:27;8.00;;;6.25;;
33954;SDS011;20233;50.804;7.126;2023-04-28T10:58:56;7.85;;;6.70;;
33954;SDS011;20233;50.804;7.126;2023-04-28T11:01:25;7.95;;;6.07;;
33954;SDS011;20233;50.804;7.126;2023-04-28T11:04:07;10.55;;;6.25;;
33954;SDS011;20233;50.804;7.126;2023-04-28T11:06:43;9.50;;;7.00;;
33954;SDS011;20233;50.804;7.126;2023-04-28T11:16:57;9.07;;;6.97;;
33954;SDS011;20233;50.804;7.126;2023-04-28T11:19:30;10.73;;;6.90;;
33954;SDS011;20233;50.804;7.126;2023-04-28T11:27:29;9.88;;;7.82;;
33954;SDS011;20233;50.804;7.126;2023-04-28T11:29:57;9.52;;;7.68;;
33954;SDS011;20233;50.804;7.126;2023-04-28T11:32:27;7.25;;;4.75;;
33954;SDS011;20233;50.804;7.126;2023-04-28T11:34:55;7.78;;;5.45;;
33954;SDS011;20233;50.804;7.126;2023-04-28T11:37:22;5.65;;;4.95;;
33954;SDS011;20233;50.804;7.126;2023-04-28T11:39:51;7.80;;;4.40;;
33954;SDS011;20233;50.804;7.126;2023-04-28T11:42:18;6.07;;;4.40;;
33954;SDS011;20233;50.804;7.126;2023-04-28T11:44:51;5.30;;;4.47;;
33954;SDS011;20233;50.804;7.126;2023-04-28T11:49:56;7.20;;;4.80;;
33954;SDS011;20233;50.804;7.126;2023-04-28T11:52:25;5.55;;;4.72;;
33954;SDS011;20233;50.804;7.126;2023-04-28T11:54:52;6.60;;;4.32;;
33954;SDS011;20233;50.804;7.126;2023-04-28T11:57:20;6.20;;;4.25;;
33954;SDS011;20233;50.804;7.126;2023-04-28T11:59:47;6.55;;;4.13;;
33954;SDS011;20233;50.804;7.126;2023-04-28T12:02:14;4.53;;;3.55;;
33954;SDS011;20233;50.804;7.126;2023-04-28T12:04:48;4.80;;;3.88;;
33954;SDS011;20233;50.804;7.126;2023-04-28T12:07:16;4.97;;;3.35;;
33954;SDS011;20233;50.804;7.126;2023-04-28T12:12:36;4.70;;;3.97;;
33954;SDS011;20233;50.804;7.126;2023-04-28T12:15:03;3.72;;;3.30;;
33954;SDS011;20233;50.804;7.126;2023-04-28T12:17:35;3.55;;;2.15;;
33954;SDS011;20233;50.804;7.126;2023-04-28T12:20:04;5.28;;;3.88;;
33954;SDS011;20233;50.804;7.126;2023-04-28T12:22:52;4.28;;;3.33;;
33954;SDS011;20233;50.804;7.126;2023-04-28T12:25:19;4.68;;;3.95;;
33954;SDS011;20233;50.804;7.126;2023-04-28T12:28:02;4.30;;;3.67;;
33954;SDS011;20233;50.804;7.126;2023-04-28T12:30:32;3.88;;;3.13;;
33954;SDS011;20233;50.804;7.126;2023-04-28T12:33:02;3.67;;;3.25;;
33954;SDS011;20233;50.804;7.126;2023-04-28T12:35:29;3.80;;;3.25;;
33954;SDS011;20233;50.804;7.126;2023-04-28T12:37:57;6.53;;;3.83;;
33954;SDS011;20233;50.804;7.126;2023-04-28T12:40:24;4.28;;;3.15;;
33954;SDS011;20233;50.804;7.126;2023-04-28T12:42:50;4.80;;;3.65;;
33954;SDS011;20233;50.804;7.126;2023-04-28T12:45:17;3.45;;;2.78;;
33954;SDS011;20233;50.804;7.126;2023-04-28T12:47:43;4.10;;;3.20;;
33954;SDS011;20233;50.804;7.126;2023-04-28T12:50:11;4.57;;;3.25;;
33954;SDS011;20233;50.804;7.126;2023-04-28T12:52:37;3.20;;;2.58;;
33954;SDS011;20233;50.804;7.126;2023-04-28T12:55:04;3.60;;;2.97;;
33954;SDS011;20233;50.804;7.126;2023-04-28T12:57:31;3.30;;;2.95;;
33954;SDS011;20233;50.804;7.126;2023-04-28T12:59:56;3.75;;;2.63;;
33954;SDS011;20233;50.804;7.126;2023-04-28T13:02:23;2.90;;;2.60;;
33954;SDS011;20233;50.804;7.126;2023-04-28T13:04:50;3.60;;;2.22;;
33954;SDS011;20233;50.804;7.126;2023-04-28T13:07:17;4.03;;;3.20;;
33954;SDS011;20233;50.804;7.126;2023-04-28T13:09:44;2.83;;;2.47;;
33954;SDS011;20233;50.804;7.126;2023-04-28T13:12:11;7.13;;;3.65;;
33954;SDS011;20233;50.804;7.126;2023-04-28T13:14:40;4.75;;;3.08;;
33954;SDS011;20233;50.804;7.126;2023-04-28T13:17:06;3.78;;;3.00;;
33954;SDS011;20233;50.804;7.126;2023-04-28T13:19:34;3.05;;;2.35;;
33954;SDS011;20233;50.804;7.126;2023-04-28T13:22:04;3.83;;;2.58;;
33954;SDS011;20233;50.804;7.126;2023-04-28T13:24:31;2.90;;;2.60;;
33954;SDS011;20233;50.804;7.126;2023-04-28T13:26:58;4.50;;;2.83;;
33954;SDS011;20233;50.804;7.126;2023-04-28T13:29:25;2.42;;;2.20;;
33954;SDS011;20233;50.804;7.126;2023-04-28T13:31:52;7.43;;;2.83;;
33954;SDS011;20233;50.804;7.126;2023-04-28T13:34:20;2.63;;;2.20;;
33954;SDS011;20233;50.804;7.126;2023-04-28T13:36:47;3.88;;;2.70;;
33954;SDS011;20233;50.804;7.126;2023-04-28T13:39:15;2.45;;;1.90;;
33954;SDS011;20233;50.804;7.126;2023-04-28T13:41:45;2.67;;;2.15;;
33954;SDS011;20233;50.804;7.126;2023-04-28T13:44:14;3.65;;;1.85;;
33954;SDS011;20233;50.804;7.126;2023-04-28T13:46:42;3.88;;;3.15;;
33954;SDS011;20233;50.804;7.126;2023-04-28T13:49:09;3.55;;;2.78;;
33954;SDS011;20233;50.804;7.126;2023-04-28T13:51:35;3.72;;;2.60;;
33954;SDS011;20233;50.804;7.126;2023-04-28T13:54:03;4.53;;;2.90;;
33954;SDS011;20233;50.804;7.126;2023-04-28T13:56:32;3.88;;;2.30;;
33954;SDS011;20233;50.804;7.126;2023-04-28T13:59:00;4.15;;;3.50;;
33954;SDS011;20233;50.804;7.126;2023-04-28T14:01:26;4.72;;;3.00;;
33954;SDS011;20233;50.804;7.126;2023-04-28T14:03:53;4.45;;;3.45;;
33954;SDS011;20233;50.804;7.126;2023-04-28T14:06:20;3.00;;;2.70;;
33954;SDS011;20233;50.804;7.126;2023-04-28T14:08:47;3.20;;;2.50;;
33954;SDS011;20233;50.804;7.126;2023-04-28T14:11:15;4.25;;;3.22;;
33954;SDS011;20233;50.804;7.126;2023-04-28T14:13:45;4.22;;;3.72;;
33954;SDS011;20233;50.804;7.126;2023-04-28T14:16:13;4.20;;;3.47;;
33954;SDS011;20233;50.804;7.126;2023-04-28T14:18:40;3.20;;;2.90;;
33954;SDS011;20233;50.804;7.126;2023-04-28T14:21:11;3.33;;;2.38;;
33954;SDS011;20233;50.804;7.126;2023-04-28T14:23:37;3.65;;;2.85;;
33954;SDS011;20233;50.804;7.126;2023-04-28T14:26:05;7.10;;;4.63;;
33954;SDS011;20233;50.804;7.126;2023-04-28T14:28:31;5.85;;;4.40;;
33954;SDS011;20233;50.804;7.126;2023-04-28T14:31:01;7.10;;;6.15;;
33954;SDS011;20233;50.804;7.126;2023-04-28T14:33:30;8.05;;;5.93;;
33954;SDS011;20233;50.804;7.126;2023-04-28T14:35:59;7.47;;;5.90;;
33954;SDS011;20233;50.804;7.126;2023-04-28T14:38:26;6.25;;;5.68;;
33954;SDS011;20233;50.804;7.126;2023-04-28T14:40:53;5.82;;;5.22;;
33954;SDS011;20233;50.804;7.126;2023-04-28T14:43:21;5.72;;;5.22;;
33954;SDS011;20233;50.804;7.126;2023-04-28T14:45:49;6.53;;;4.80;;
33954;SDS011;20233;50.804;7.126;2023-04-28T14:48:16;6.85;;;5.47;;
33954;SDS011;20233;50.804;7.126;2023-04-28T14:50:47;5.22;;;4.72;;
33954;SDS011;20233;50.804;7.126;2023-04-28T14:53:16;6.25;;;4.75;;
33954;SDS011;20233;50.804;7.126;2023-04-28T14:55:43;6.90;;;3.85;;
33954;SDS011;20233;50.804;7.126;2023-04-28T14:58:10;3.38;;;3.08;;
33954;SDS011;20233;50.804;7.126;2023-04-28T15:00:38;6.93;;;3.72;;
33954;SDS011;20233;50.804;7.126;2023-04-28T15:03:06;3.22;;;2.65;;
33954;SDS011;20233;50.804;7.126;2023-04-28T15:05:32;3.25;;;2.33;;
33954;SDS011;20233;50.804;7.126;2023-04-28T15:08:00;3.88;;;2.17;;
33954;SDS011;20233;50.804;7.126;2023-04-28T15:10:27;8.15;;;2.45;;
33954;SDS011;20233;50.804;7.126;2023-04-28T15:13:01;2.25;;;0.30;;
33954;SDS011;20233;50.804;7.126;2023-04-28T15:15:28;3.85;;;0.30;;
33954;SDS011;20233;50.804;7.126;2023-04-28T15:17:55;1.92;;;0.77;;
33954;SDS011;20233;50.804;7.126;2023-04-28T15:20:25;3.70;;;0.50;;